Time;durP1;ratioP1;P1;durP2;ratioP2;P2;SDS_P1;SDS_P2;PMS_P1;PMS_P2;Temp;Humidity;BMP_temperature;BMP_pressure;BME280_temperature;BME280_humidity;BME280_pressure;Samples;Min_cycle;Max_cycle;Signal;HPM_P1;HPM_P2
2022/05/25 00:08:20;;;;;;;2.22;2.03;;;;;;;24.60;41.46;99864.09;20767017;27;97152;-79
2022/05/25 00:18:21;;;;;;;2.08;1.88;;;;;;;24.60;41.32;99850.88;20777735;27;98107;-80
2022/05/25 00:28:23;;;;;;;2.13;2.00;;;;;;;24.59;41.20;99867.72;20780028;27;98806;-79
2022/05/25 00:38:23;;;;;;;2.17;1.80;;;;;;;24.59;41.16;99874.84;20792541;27;97746;-80
2022/05/25 00:48:35;;;;;;;2.50;2.00;;;;;;;24.57;41.16;99860.94;20770076;27;97873;-79
2022/05/25 00:58:38;;;;;;;5.30;2.00;;;;;;;24.56;41.20;99869.84;20760635;27;98503;-78
2022/05/25 01:08:58;;;;;;;1.90;1.67;;;;;;;24.54;41.57;99871.84;20778823;27;97486;-78
2022/05/25 01:19:33;;;;;;;2.03;1.88;;;;;;;24.55;41.37;99902.63;20773904;27;97624;-79
2022/05/25 01:30:03;;;;;;;3.55;1.90;;;;;;;24.52;41.62;99895.78;20757959;27;100955;-79
2022/05/25 01:40:09;;;;;;;3.38;1.80;;;;;;;24.53;41.52;99897.47;20788616;27;96919;-79
2022/05/25 01:50:21;;;;;;;2.97;1.73;;;;;;;24.51;41.65;99896.81;20793256;27;99632;-78
2022/05/25 02:00:26;;;;;;;1.97;1.80;;;;;;;24.50;41.86;99905.72;20767798;27;97199;-79
2022/05/25 02:10:42;;;;;;;3.33;2.17;;;;;;;24.49;41.96;99900.59;20759518;27;97529;-80
2022/05/25 02:20:50;;;;;;;2.20;2.00;;;;;;;24.46;41.86;99885.81;20783521;27;97762;-79
2022/05/25 02:30:56;;;;;;;2.35;1.65;;;;;;;24.45;42.05;99878.91;20762358;27;101929;-79
2022/05/25 02:41:05;;;;;;;1.90;1.60;;;;;;;24.44;42.13;99872.75;20755911;27;97251;-80
2022/05/25 02:51:07;;;;;;;2.58;1.98;;;;;;;24.43;41.87;99873.72;20768361;27;98005;-79
2022/05/25 03:01:08;;;;;;;1.97;1.60;;;;;;;24.42;41.90;99873.88;20757846;27;101135;-79
2022/05/25 03:11:10;;;;;;;4.53;1.80;;;;;;;24.40;41.89;99874.06;20783546;27;97804;-79
2022/05/25 03:21:11;;;;;;;1.92;1.67;;;;;;;24.40;42.06;99891.72;20785829;27;97528;-79
2022/05/25 03:31:12;;;;;;;2.83;1.73;;;;;;;24.38;42.09;99885.78;20788644;27;98091;-79
2022/05/25 03:41:17;;;;;;;1.87;1.50;;;;;;;24.39;42.07;99903.28;20808833;27;97293;-81
2022/05/25 03:51:18;;;;;;;2.53;1.73;;;;;;;24.38;42.12;99909.59;20763027;27;97958;-79
2022/05/25 04:01:18;;;;;;;2.10;1.63;;;;;;;24.39;42.20;99916.53;20754839;27;99954;-79
2022/05/25 04:11:19;;;;;;;2.30;1.80;;;;;;;24.39;42.12;99924.47;20770813;27;101549;-80
2022/05/25 04:21:22;;;;;;;1.90;1.65;;;;;;;24.39;41.92;99922.66;20739381;27;101504;-82
2022/05/25 04:31:23;;;;;;;2.30;1.67;;;;;;;24.40;42.41;99928.78;20771566;27;99350;-74
2022/05/25 04:41:23;;;;;;;2.85;2.15;;;;;;;24.34;42.77;99932.03;20778830;27;98110;-77
2022/05/25 04:51:24;;;;;;;5.00;2.75;;;;;;;24.27;43.29;99926.53;20797585;27;98561;-77
2022/05/25 05:01:25;;;;;;;6.82;2.70;;;;;;;24.10;43.90;99931.63;20767456;27;99077;-81
2022/05/25 05:11:26;;;;;;;5.13;3.10;;;;;;;23.02;46.00;99947.03;20770170;27;97554;-78
2022/05/25 05:21:26;;;;;;;4.97;2.67;;;;;;;23.27;45.26;99928.94;20782477;27;97287;-78
2022/05/25 05:31:27;;;;;;;7.43;2.70;;;;;;;23.49;44.95;99952.34;20783457;27;98925;-78
2022/05/25 05:41:35;;;;;;;4.60;2.50;;;;;;;23.64;44.64;99965.94;20794565;27;100261;-79
2022/05/25 05:51:36;;;;;;;3.83;2.42;;;;;;;23.79;44.69;99986.59;20813121;27;97523;-76
2022/05/25 06:01:37;;;;;;;3.80;2.28;;;;;;;23.87;44.87;99991.19;20798133;27;97062;-77
2022/05/25 06:11:41;;;;;;;7.22;2.40;;;;;;;23.95;44.74;100000.06;20779426;27;97286;-77
2022/05/25 06:21:41;;;;;;;4.40;2.03;;;;;;;24.02;44.32;99997.66;20788263;27;100324;-80
2022/05/25 06:31:42;;;;;;;4.47;2.28;;;;;;;24.09;44.46;99995.25;20816551;27;98110;-79
2022/05/25 06:41:43;;;;;;;4.22;2.00;;;;;;;24.12;44.46;99995.81;20789853;27;97397;-80
2022/05/25 06:51:44;;;;;;;5.72;1.88;;;;;;;24.15;43.94;99989.38;20803884;27;97433;-80
2022/05/25 07:01:45;;;;;;;4.20;2.00;;;;;;;24.17;44.03;99986.59;20777736;27;98710;-78
2022/05/25 07:11:54;;;;;;;2.60;1.73;;;;;;;24.17;44.17;99979.50;20764253;27;97015;-78
2022/05/25 07:21:55;;;;;;;5.40;2.38;;;;;;;24.18;43.72;99980.31;20803479;27;98912;-78
2022/05/25 07:32:06;;;;;;;2.90;1.90;;;;;;;24.19;43.70;99990.75;20779344;27;96942;-78
2022/05/25 07:42:08;;;;;;;2.70;1.80;;;;;;;24.20;43.77;99981.00;20794740;27;98826;-79
2022/05/25 07:52:10;;;;;;;2.55;1.90;;;;;;;24.19;43.32;99980.16;20804042;27;97664;-78
2022/05/25 08:12:57;;;;;;;2.15;1.88;;;;;;;24.23;43.16;99992.13;20816871;27;97564;-78
2022/05/25 08:22:57;;;;;;;5.03;1.75;;;;;;;24.24;43.30;99999.09;20816585;27;99643;-77
2022/05/25 08:32:58;;;;;;;2.38;1.92;;;;;;;24.25;43.12;99984.84;20818888;27;97020;-79
2022/05/25 08:43:12;;;;;;;1.77;1.50;;;;;;;24.26;43.06;99975.94;20819714;27;97203;-80
2022/05/25 08:53:13;;;;;;;3.08;2.00;;;;;;;24.29;42.91;99980.09;20812962;27;97575;-80
2022/05/25 09:03:33;;;;;;;2.35;1.58;;;;;;;24.28;42.97;99968.69;20797586;27;100661;-80
2022/05/25 09:13:47;;;;;;;2.55;1.95;;;;;;;24.29;42.99;99977.44;20807354;27;97439;-80
2022/05/25 09:23:52;;;;;;;1.98;1.70;;;;;;;24.30;43.08;99977.31;20820655;27;100646;-80
2022/05/25 09:33:58;;;;;;;2.95;1.80;;;;;;;24.32;42.90;99974.53;20807132;27;98580;-80
2022/05/25 09:44:03;;;;;;;4.07;2.20;;;;;;;24.33;42.65;99970.91;20804537;27;99170;-80
2022/05/25 09:54:22;;;;;;;2.25;1.90;;;;;;;24.33;42.91;99972.69;20803263;27;96906;-80
2022/05/25 10:04:51;;;;;;;3.58;2.15;;;;;;;24.34;42.82;99977.00;20821406;27;97245;-80
2022/05/25 10:15:06;;;;;;;2.42;2.03;;;;;;;24.34;42.76;99977.84;20799896;27;99091;-80
2022/05/25 10:25:20;;;;;;;3.88;2.00;;;;;;;24.36;42.89;99967.13;20807703;27;97837;-80
2022/05/25 10:45:51;;;;;;;3.08;2.30;;;;;;;24.41;42.99;99963.03;20821430;27;98212;-80
2022/05/25 10:56:19;;;;;;;2.45;2.17;;;;;;;24.44;43.20;99961.91;20807785;27;98940;-80
2022/05/25 11:06:42;;;;;;;5.22;2.60;;;;;;;24.49;42.96;99958.81;20784508;27;97143;-80
2022/05/25 11:17:06;;;;;;;2.63;2.40;;;;;;;24.53;43.61;99960.97;20774860;27;97673;-79
2022/05/25 11:27:52;;;;;;;3.28;2.50;;;;;;;24.56;43.87;99962.50;20789462;27;97130;-78
2022/05/25 11:38:18;;;;;;;6.28;3.30;;;;;;;24.61;44.32;99966.38;20792378;27;98418;-79
2022/05/25 11:48:41;;;;;;;3.83;2.63;;;;;;;24.67;43.81;99969.41;20814859;27;97655;-80
2022/05/25 11:59:07;;;;;;;4.72;2.58;;;;;;;24.71;44.17;99966.31;20809060;27;98142;-80
2022/05/25 12:09:36;;;;;;;5.40;2.92;;;;;;;24.78;44.48;99967.38;20800440;27;97620;-80
2022/05/25 12:19:37;;;;;;;3.78;3.10;;;;;;;24.84;44.05;99967.72;20820022;27;97116;-79
2022/05/25 12:29:42;;;;;;;4.88;3.58;;;;;;;24.91;44.01;99968.78;20809901;27;98279;-79
2022/05/25 12:39:45;;;;;;;3.15;2.80;;;;;;;24.97;43.81;99983.25;20816582;27;97047;-80
2022/05/25 12:49:48;;;;;;;4.45;3.20;;;;;;;25.03;43.66;99975.50;20819932;27;97396;-80
2022/05/25 12:59:50;;;;;;;3.40;3.08;;;;;;;25.09;43.95;99980.16;20802895;27;100677;-79
2022/05/25 13:09:51;;;;;;;3.58;2.80;;;;;;;25.16;43.55;99974.25;20797603;27;97131;-79
2022/05/25 13:19:52;;;;;;;;;;;;;;;25.20;43.54;99965.84;20803185;27;97532;-79
2022/05/25 13:30:04;;;;;;;8.20;3.45;;;;;;;25.25;43.50;99960.09;20811252;27;98525;-76
2022/05/25 13:40:11;;;;;;;7.22;3.70;;;;;;;25.26;43.86;99975.81;20802489;27;99937;-77
2022/05/25 13:50:12;;;;;;;6.68;3.30;;;;;;;25.30;43.44;99989.59;20809577;27;98164;-77
2022/05/25 14:00:27;;;;;;;5.80;3.50;;;;;;;25.35;43.39;99987.31;20791062;27;98246;-77
2022/05/25 14:20:47;;;;;;;5.30;3.70;;;;;;;25.35;43.75;100010.31;20807686;27;97206;-76
2022/05/25 14:30:54;;;;;;;5.70;3.97;;;;;;;25.38;43.28;100031.28;20804286;27;100330;-76
2022/05/25 14:40:55;;;;;;;3.80;3.42;;;;;;;25.43;43.35;100047.53;20776009;27;100010;-76
2022/05/25 14:50:58;;;;;;;6.38;3.67;;;;;;;25.46;43.11;100043.72;20789960;27;97671;-77
2022/05/25 15:01:14;;;;;;;3.58;3.22;;;;;;;25.49;43.61;100057.50;20807219;27;97081;-76
2022/05/25 15:11:35;;;;;;;5.57;3.85;;;;;;;25.45;43.58;100069.41;20793080;27;97554;-76
2022/05/25 15:21:36;;;;;;;3.80;3.42;;;;;;;25.42;43.34;100075.03;20811085;27;97291;-76
2022/05/25 15:31:37;;;;;;;4.87;3.60;;;;;;;25.35;43.62;100087.19;20825283;27;97472;-77
2022/05/25 15:41:37;;;;;;;8.40;3.78;;;;;;;25.30;43.90;100098.25;20816641;27;99526;-76
2022/05/25 15:51:45;;;;;;;12.63;3.63;;;;;;;25.25;44.40;100090.78;20809762;27;97534;-76
2022/05/25 16:01:48;;;;;;;5.07;2.80;;;;;;;25.24;44.04;100107.66;20773966;27;97344;-81
2022/05/25 16:11:52;;;;;;;3.78;1.90;;;;;;;25.14;43.66;100121.97;20783269;27;97132;-81
2022/05/25 16:21:53;;;;;;;1.50;1.40;;;;;;;24.99;43.43;100129.59;20831471;27;97386;-79
2022/05/25 16:31:53;;;;;;;4.05;1.13;;;;;;;24.90;43.55;100108.34;20798145;27;100149;-81
2022/05/25 16:41:57;;;;;;;1.10;1.00;;;;;;;24.78;43.20;100094.47;20797357;27;100092;-80
2022/05/25 16:51:57;;;;;;;2.25;0.85;;;;;;;24.73;43.20;100101.19;20802182;27;97143;-80
2022/05/25 17:01:58;;;;;;;2.63;1.00;;;;;;;24.64;44.40;100129.34;20816867;27;98173;-80
2022/05/25 17:11:59;;;;;;;3.15;1.10;;;;;;;24.55;44.06;100117.03;20820851;27;96938;-79
2022/05/25 17:22:00;;;;;;;1.10;1.00;;;;;;;24.50;45.10;100143.06;20804169;27;97347;-81
2022/05/25 17:32:02;;;;;;;0.82;0.82;;;;;;;24.37;45.43;100144.25;20781510;27;98613;-80
2022/05/25 17:42:03;;;;;;;2.50;1.27;;;;;;;24.25;46.30;100154.19;20781203;27;99456;-79
2022/05/25 17:52:05;;;;;;;1.50;1.00;;;;;;;24.21;46.56;100173.16;20778703;27;97679;-81
2022/05/25 18:02:07;;;;;;;1.50;1.40;;;;;;;23.99;47.88;100217.47;20770965;27;98173;-78
2022/05/25 18:12:11;;;;;;;1.93;1.40;;;;;;;24.00;48.14;100228.88;20787529;27;98217;-80
2022/05/25 18:22:13;;;;;;;2.03;1.40;;;;;;;24.02;48.27;100242.81;20778640;27;99017;-80
2022/05/25 18:32:13;;;;;;;1.53;1.30;;;;;;;24.06;48.16;100239.72;20780505;27;97632;-80
2022/05/25 18:42:14;;;;;;;4.55;1.27;;;;;;;24.15;48.17;100253.91;20816158;27;100027;-80
2022/05/25 18:52:15;;;;;;;1.50;1.40;;;;;;;24.13;48.50;100272.59;20794067;27;98040;-82
2022/05/25 19:02:16;;;;;;;1.30;1.20;;;;;;;24.17;47.96;100285.50;20793531;27;99082;-82
2022/05/25 19:12:17;;;;;;;1.02;0.93;;;;;;;24.35;47.70;100298.88;20747968;27;99129;-81
2022/05/25 19:22:45;;;;;;;1.60;1.02;;;;;;;24.44;46.96;100308.59;20766699;27;97005;-80
2022/05/25 19:32:45;;;;;;;4.45;1.20;;;;;;;24.50;47.07;100323.91;20764404;27;98561;-79
2022/05/25 19:42:55;;;;;;;1.80;1.10;;;;;;;24.53;46.43;100323.63;20751556;27;101851;-80
2022/05/25 19:52:56;;;;;;;2.00;1.30;;;;;;;24.55;46.41;100297.03;20778155;27;97320;-79
2022/05/25 20:02:56;;;;;;;2.23;1.30;;;;;;;24.58;46.11;100280.84;20799233;27;97474;-80
2022/05/25 20:12:59;;;;;;;1.73;1.38;;;;;;;24.58;46.16;100297.56;20810230;27;100287;-79
2022/05/25 20:22:59;;;;;;;2.42;1.38;;;;;;;24.59;45.79;100283.34;20815539;27;97391;-78
2022/05/25 20:33:00;;;;;;;2.88;1.30;;;;;;;24.59;45.80;100287.81;20802607;27;97045;-79
2022/05/25 20:43:01;;;;;;;1.40;1.30;;;;;;;24.59;45.61;100304.50;20801032;27;96939;-79
2022/05/25 20:53:02;;;;;;;2.10;1.30;;;;;;;24.57;45.57;100297.69;20785123;27;98563;-79
2022/05/25 21:03:05;;;;;;;3.10;2.03;;;;;;;24.57;45.73;100316.22;20771630;27;97575;-78
2022/05/25 21:13:05;;;;;;;2.67;1.70;;;;;;;24.55;45.46;100332.25;20772716;27;97740;-80
2022/05/25 21:23:07;;;;;;;2.42;1.90;;;;;;;24.54;45.43;100337.72;20803435;27;97868;-79
2022/05/25 21:33:07;;;;;;;2.43;2.10;;;;;;;24.54;45.23;100353.59;20812865;27;97033;-79
2022/05/25 21:43:09;;;;;;;2.72;1.95;;;;;;;24.52;45.15;100368.75;20794458;27;98840;-79
2022/05/25 21:53:10;;;;;;;2.38;1.90;;;;;;;24.52;45.03;100377.53;20791450;27;99834;-80
2022/05/25 22:03:11;;;;;;;1.73;1.63;;;;;;;24.52;45.10;100393.41;20798592;27;101099;-79
2022/05/25 22:13:11;;;;;;;2.88;1.83;;;;;;;24.50;45.25;100408.63;20792875;27;97141;-79
2022/05/25 22:23:12;;;;;;;2.38;1.90;;;;;;;24.50;45.17;100394.53;20795732;27;97503;-79
2022/05/25 22:33:12;;;;;;;2.00;1.80;;;;;;;24.50;44.93;100394.53;20791544;27;99305;-79
2022/05/25 22:43:17;;;;;;;2.47;1.90;;;;;;;24.49;45.21;100414.06;20778592;27;98495;-79
2022/05/25 22:53:18;;;;;;;1.83;1.70;;;;;;;24.49;44.86;100437.88;20781645;27;97026;-80
2022/05/25 23:03:22;;;;;;;1.83;1.53;;;;;;;24.48;45.05;100449.44;20788739;27;97833;-80
2022/05/25 23:13:24;;;;;;;1.70;1.60;;;;;;;24.45;45.00;100456.69;20791104;27;97332;-79
2022/05/25 23:23:25;;;;;;;1.85;1.67;;;;;;;24.46;44.91;100465.44;20792236;27;100264;-79
2022/05/25 23:33:26;;;;;;;1.77;1.50;;;;;;;24.44;44.68;100480.66;20805286;27;99085;-80
2022/05/25 23:53:48;;;;;;;2.42;1.60;;;;;;;24.42;44.80;100517.81;20811259;27;97352;-80
